Time;durP1;ratioP1;P1;durP2;ratioP2;P2;SDS_P1;SDS_P2;PMS_P1;PMS_P2;Temp;Humidity;BMP_temperature;BMP_pressure;BME280_temperature;BME280_humidity;BME280_pressure;Samples;Min_cycle;Max_cycle;Signal;HPM_P1;HPM_P2
2022/07/29 00:00:01;;;;;;;2.80;2.60;;;28.20;41.90;;;;;;5108967;27;45404;-74
2022/07/29 00:02:27;;;;;;;2.88;2.38;;;28.20;42.10;;;;;;5108663;27;45238;-74
2022/07/29 00:04:54;;;;;;;2.95;2.65;;;28.20;41.90;;;;;;5108933;27;45321;-74
2022/07/29 00:07:21;;;;;;;2.92;2.70;;;28.20;42.00;;;;;;5109036;27;45289;-74
2022/07/29 00:09:48;;;;;;;3.40;2.38;;;28.20;41.90;;;;;;5109112;27;45365;-74
2022/07/29 00:12:16;;;;;;;2.90;2.60;;;28.10;41.90;;;;;;5107840;27;46274;-75
2022/07/29 00:14:43;;;;;;;2.30;2.20;;;28.10;42.00;;;;;;5108279;27;45119;-74
2022/07/29 00:17:10;;;;;;;2.65;2.30;;;28.10;42.00;;;;;;5108596;27;45350;-74
2022/07/29 00:19:37;;;;;;;2.70;2.50;;;28.10;42.10;;;;;;5108753;27;45332;-74
2022/07/29 00:22:03;;;;;;;2.92;2.65;;;28.10;42.10;;;;;;5108317;27;45443;-75
2022/07/29 00:24:30;;;;;;;2.42;2.22;;;28.00;42.10;;;;;;5108091;27;44650;-75
2022/07/29 00:26:57;;;;;;;2.58;2.38;;;28.00;42.10;;;;;;5108477;27;45145;-74
2022/07/29 00:29:25;;;;;;;2.35;2.17;;;28.00;42.10;;;;;;5102528;27;45190;-74
2022/07/29 00:31:52;;;;;;;2.50;2.30;;;28.00;42.70;;;;;;5087565;28;46674;-74
2022/07/29 00:37:03;;;;;;;2.47;2.10;;;27.90;41.80;;;;;;5097779;27;45312;-74
2022/07/29 00:39:30;;;;;;;2.72;2.35;;;27.90;42.00;;;;;;5108268;27;45597;-74
2022/07/29 00:41:57;;;;;;;2.40;2.20;;;27.90;42.10;;;;;;5107949;27;46455;-74
2022/07/29 00:44:25;;;;;;;2.42;2.22;;;27.80;42.10;;;;;;5108063;27;45229;-74
2022/07/29 00:46:52;;;;;;;2.92;2.53;;;27.80;42.10;;;;;;5108255;27;45372;-75
2022/07/29 00:49:19;;;;;;;2.33;2.13;;;27.80;42.10;;;;;;5108312;27;45249;-75
2022/07/29 00:51:45;;;;;;;2.58;2.38;;;27.80;42.20;;;;;;5107713;27;46345;-74
2022/07/29 00:54:12;;;;;;;2.70;2.42;;;27.80;42.10;;;;;;5107832;27;45139;-74
2022/07/29 00:56:39;;;;;;;3.10;2.47;;;27.80;42.20;;;;;;5108097;27;45138;-74
2022/07/29 00:59:06;;;;;;;2.22;2.03;;;27.70;42.10;;;;;;5108272;27;45253;-74
2022/07/29 01:01:34;;;;;;;2.28;2.08;;;27.70;42.20;;;;;;5107323;27;45462;-73
2022/07/29 01:04:01;;;;;;;2.50;2.30;;;27.70;42.20;;;;;;5107220;27;45181;-74
2022/07/29 01:06:28;;;;;;;2.38;2.17;;;27.70;42.20;;;;;;5107965;27;45130;-74
2022/07/29 01:08:54;;;;;;;2.78;2.33;;;27.70;42.30;;;;;;5108035;27;45415;-74
2022/07/29 01:11:21;;;;;;;3.45;2.60;;;27.70;42.30;;;;;;5107373;27;46659;-74
2022/07/29 01:13:48;;;;;;;2.40;2.20;;;27.70;42.20;;;;;;5107666;27;45333;-74
2022/07/29 01:16:18;;;;;;;2.40;2.20;;;27.70;42.40;;;;;;5107771;27;45388;-74
2022/07/29 01:18:47;;;;;;;2.20;2.10;;;27.60;42.20;;;;;;5107927;27;45220;-74
2022/07/29 01:21:28;;;;;;;2.47;2.28;;;27.60;42.20;;;;;;5107201;27;46384;-74
2022/07/29 01:24:12;;;;;;;2.50;2.30;;;27.60;42.30;;;;;;5107641;27;45295;-74
2022/07/29 01:26:48;;;;;;;2.50;2.30;;;27.60;42.50;;;;;;5107744;27;45137;-74
2022/07/29 01:29:23;;;;;;;2.30;2.20;;;27.60;42.20;;;;;;5103045;27;45256;-74
2022/07/29 01:31:52;;;;;;;2.40;2.20;;;27.50;42.20;;;;;;5086911;28;45444;-74
2022/07/29 01:34:21;;;;;;;2.58;2.35;;;27.50;42.40;;;;;;5086967;28;45311;-75
2022/07/29 01:36:50;;;;;;;2.25;2.10;;;27.50;42.90;;;;;;5096703;27;45205;-74
2022/07/29 01:39:19;;;;;;;2.25;1.98;;;27.50;42.40;;;;;;5107172;27;45446;-74
2022/07/29 01:41:50;;;;;;;2.50;2.30;;;27.50;42.20;;;;;;5107133;27;46591;-74
2022/07/29 01:44:20;;;;;;;2.45;2.25;;;27.50;43.00;;;;;;5107184;27;45337;-74
2022/07/29 01:46:51;;;;;;;3.47;2.10;;;27.50;42.40;;;;;;5107347;27;45277;-74
2022/07/29 01:49:21;;;;;;;2.30;2.10;;;27.40;42.20;;;;;;5107363;27;45313;-74
2022/07/29 01:51:52;;;;;;;2.20;2.10;;;27.40;42.20;;;;;;5107129;27;45196;-74
2022/07/29 01:54:21;;;;;;;2.55;2.35;;;27.40;42.20;;;;;;5107126;27;45305;-74
2022/07/29 01:56:49;;;;;;;2.33;2.13;;;27.40;42.20;;;;;;5107248;27;45146;-74
2022/07/29 01:59:16;;;;;;;2.42;2.22;;;27.40;42.30;;;;;;5107205;27;45335;-74
2022/07/29 02:01:44;;;;;;;2.80;2.60;;;27.40;42.40;;;;;;5106648;27;45911;-74
2022/07/29 02:04:11;;;;;;;2.35;2.15;;;27.40;42.40;;;;;;5106780;27;45192;-74
2022/07/29 02:06:39;;;;;;;2.20;2.00;;;27.40;42.40;;;;;;5107155;27;45154;-74
2022/07/29 02:09:05;;;;;;;2.85;2.10;;;27.40;42.50;;;;;;5107342;27;45186;-73
2022/07/29 02:11:32;;;;;;;2.30;2.00;;;27.40;42.40;;;;;;5106960;27;45323;-74
2022/07/29 02:13:59;;;;;;;2.33;2.20;;;27.30;42.30;;;;;;5106245;27;45430;-74
2022/07/29 02:16:26;;;;;;;2.97;2.22;;;27.30;42.30;;;;;;5107242;27;45505;-74
2022/07/29 02:18:55;;;;;;;2.60;2.40;;;27.30;42.30;;;;;;5107227;27;45284;-74
2022/07/29 02:21:24;;;;;;;2.60;2.40;;;27.30;42.30;;;;;;5106468;27;45654;-74
2022/07/29 02:23:51;;;;;;;2.30;2.20;;;27.30;42.30;;;;;;5106581;27;45253;-74
2022/07/29 02:26:18;;;;;;;2.42;2.22;;;27.30;42.30;;;;;;5106889;27;45155;-74
2022/07/29 02:28:44;;;;;;;2.38;2.17;;;27.30;42.30;;;;;;5106346;27;45130;-74
2022/07/29 02:31:11;;;;;;;2.17;2.00;;;27.20;42.20;;;;;;5085917;28;46194;-74
2022/07/29 02:33:38;;;;;;;3.45;2.20;;;27.20;42.30;;;;;;5086142;28;45393;-74
2022/07/29 02:36:07;;;;;;;2.40;2.20;;;27.20;42.30;;;;;;5090580;27;45259;-74
2022/07/29 02:38:52;;;;;;;2.28;2.17;;;27.20;42.30;;;;;;5106578;27;45301;-74
2022/07/29 02:41:21;;;;;;;2.58;1.80;;;27.20;42.30;;;;;;5106441;27;45498;-74
2022/07/29 02:43:48;;;;;;;2.10;1.90;;;27.20;42.30;;;;;;5106315;27;45313;-74
2022/07/29 02:46:17;;;;;;;2.15;1.98;;;27.10;42.40;;;;;;5106589;27;45324;-74
2022/07/29 02:48:47;;;;;;;2.20;2.00;;;27.10;42.40;;;;;;5108823;27;45173;-74
2022/07/29 02:51:19;;;;;;;1.90;1.80;;;27.10;42.30;;;;;;5109723;27;46792;-74
2022/07/29 02:53:45;;;;;;;2.40;2.20;;;27.10;42.40;;;;;;5109757;27;45210;-74
2022/07/29 02:56:14;;;;;;;2.22;2.10;;;27.10;42.40;;;;;;5109979;27;45324;-74
2022/07/29 02:58:43;;;;;;;2.30;2.10;;;27.10;42.40;;;;;;5110177;27;45279;-74
2022/07/29 03:01:13;;;;;;;2.03;1.88;;;27.10;42.40;;;;;;5109550;27;46462;-74
2022/07/29 03:03:40;;;;;;;2.60;2.22;;;27.10;42.40;;;;;;5110059;27;45351;-74
2022/07/29 03:06:07;;;;;;;2.47;2.03;;;27.10;42.40;;;;;;5110164;27;45287;-74
2022/07/29 03:08:35;;;;;;;2.20;2.10;;;27.00;42.40;;;;;;5109936;27;45395;-74
2022/07/29 03:11:02;;;;;;;2.50;2.30;;;27.00;42.40;;;;;;5108808;27;45498;-74
2022/07/29 03:13:29;;;;;;;3.45;2.45;;;27.00;42.40;;;;;;5109414;27;45364;-74
2022/07/29 03:15:56;;;;;;;2.25;2.10;;;27.00;42.40;;;;;;5109719;27;45291;-74
2022/07/29 03:18:22;;;;;;;2.08;1.98;;;27.00;42.40;;;;;;5109826;27;45214;-74
2022/07/29 03:20:49;;;;;;;3.00;2.33;;;27.00;42.40;;;;;;5109446;27;45364;-74
2022/07/29 03:23:19;;;;;;;2.38;2.08;;;27.00;42.30;;;;;;5109498;27;45193;-74
2022/07/29 03:25:47;;;;;;;2.25;2.15;;;26.90;42.40;;;;;;5109705;27;45294;-74
2022/07/29 03:28:14;;;;;;;3.78;1.95;;;26.90;42.30;;;;;;5109580;27;45331;-74
2022/07/29 03:30:41;;;;;;;2.97;2.08;;;26.90;42.30;;;;;;5092366;27;45549;-74
2022/07/29 03:33:08;;;;;;;2.67;2.10;;;26.90;42.40;;;;;;5088699;28;45331;-74
2022/07/29 03:35:35;;;;;;;2.50;2.30;;;26.90;42.40;;;;;;5088840;28;45306;-74
2022/07/29 03:38:01;;;;;;;2.00;1.90;;;26.90;42.40;;;;;;5068371;28;45399;-74
2022/07/29 03:40:31;;;;;;;2.40;2.20;;;26.80;42.40;;;;;;5068324;28;46392;-74
2022/07/29 03:42:59;;;;;;;2.58;2.38;;;26.80;42.30;;;;;;5068251;28;45297;-73
2022/07/29 03:45:26;;;;;;;2.60;2.10;;;26.80;42.40;;;;;;5068339;28;45321;-74
2022/07/29 03:47:54;;;;;;;2.47;2.28;;;26.80;43.00;;;;;;5068486;28;45177;-74
2022/07/29 03:50:21;;;;;;;2.30;2.10;;;26.80;42.30;;;;;;5068181;28;47307;-74
2022/07/29 03:52:48;;;;;;;2.33;2.13;;;26.80;42.30;;;;;;5068136;28;45330;-74
2022/07/29 03:55:15;;;;;;;2.00;1.90;;;26.80;42.50;;;;;;5068153;28;45286;-74
2022/07/29 03:57:41;;;;;;;2.10;2.00;;;26.80;42.40;;;;;;5067683;28;45457;-72
2022/07/29 04:00:10;;;;;;;1.90;1.80;;;26.70;42.90;;;;;;5067023;28;45192;-74
2022/07/29 04:02:37;;;;;;;2.15;1.98;;;26.70;42.30;;;;;;5068025;28;45254;-73
2022/07/29 04:05:04;;;;;;;2.78;2.50;;;26.70;42.30;;;;;;5068085;28;45307;-74
2022/07/29 04:07:31;;;;;;;2.33;2.13;;;26.70;42.30;;;;;;5068134;28;45234;-74
2022/07/29 04:09:58;;;;;;;2.67;2.47;;;26.70;42.30;;;;;;5067752;28;45242;-74
2022/07/29 04:12:25;;;;;;;1.80;1.70;;;26.70;42.30;;;;;;5067888;28;45134;-74
2022/07/29 04:14:52;;;;;;;2.45;2.25;;;26.70;42.30;;;;;;5067738;28;45197;-74
2022/07/29 04:17:20;;;;;;;2.28;2.08;;;26.70;42.40;;;;;;5067802;28;45263;-74
2022/07/29 04:19:47;;;;;;;2.70;2.20;;;26.60;42.30;;;;;;5067519;28;45542;-74
2022/07/29 04:22:14;;;;;;;2.55;2.35;;;26.60;42.30;;;;;;5067554;28;45197;-74
2022/07/29 04:24:40;;;;;;;2.08;1.98;;;26.60;42.30;;;;;;5067744;28;45191;-74
2022/07/29 04:27:07;;;;;;;2.17;2.08;;;26.60;42.30;;;;;;5068140;28;45482;-74
2022/07/29 04:29:34;;;;;;;2.10;2.00;;;26.60;42.30;;;;;;5075049;27;46336;-74
2022/07/29 04:32:01;;;;;;;2.28;2.08;;;26.60;42.30;;;;;;5108463;27;45374;-74
2022/07/29 04:34:29;;;;;;;2.30;2.20;;;26.60;42.30;;;;;;5108532;27;45164;-74
2022/07/29 04:36:56;;;;;;;2.58;2.10;;;26.50;42.20;;;;;;5108633;27;45408;-74
2022/07/29 04:39:23;;;;;;;1.92;1.83;;;26.50;42.20;;;;;;5107830;27;46407;-74
2022/07/29 04:41:50;;;;;;;2.10;2.00;;;26.50;42.30;;;;;;5108315;27;45243;-73
2022/07/29 04:44:17;;;;;;;2.00;1.88;;;26.50;42.20;;;;;;5107557;27;45272;-74
2022/07/29 04:46:44;;;;;;;2.47;2.28;;;26.50;42.30;;;;;;5108263;27;45210;-74
2022/07/29 04:49:11;;;;;;;2.08;1.98;;;26.50;42.30;;;;;;5108581;27;46533;-74
2022/07/29 04:51:39;;;;;;;2.60;2.40;;;26.50;42.30;;;;;;5108131;27;45177;-73
2022/07/29 04:54:06;;;;;;;2.13;1.92;;;26.50;42.20;;;;;;5108300;27;45318;-74
2022/07/29 04:56:33;;;;;;;2.10;2.00;;;26.50;42.30;;;;;;5108372;27;45308;-74
2022/07/29 04:58:59;;;;;;;2.13;2.00;;;26.40;42.10;;;;;;5107817;27;46417;-74
2022/07/29 05:01:26;;;;;;;2.03;1.90;;;26.40;42.10;;;;;;5107776;27;45169;-74
2022/07/29 05:03:53;;;;;;;1.88;1.77;;;26.40;42.20;;;;;;5107860;27;45315;-74
2022/07/29 05:06:20;;;;;;;2.03;1.92;;;26.40;42.30;;;;;;5108080;27;45256;-74
2022/07/29 05:08:48;;;;;;;2.40;2.20;;;26.40;42.20;;;;;;5107828;27;46675;-73
2022/07/29 05:11:15;;;;;;;2.58;2.30;;;26.40;42.20;;;;;;5106843;27;45186;-73
2022/07/29 05:13:42;;;;;;;2.42;2.22;;;26.40;42.20;;;;;;5107914;27;45238;-74
2022/07/29 05:16:09;;;;;;;2.38;2.17;;;26.40;42.30;;;;;;5108067;27;45279;-74
2022/07/29 05:18:36;;;;;;;2.20;2.10;;;26.40;42.20;;;;;;5107994;27;47318;-73
2022/07/29 05:21:03;;;;;;;2.28;2.10;;;26.40;42.40;;;;;;5107725;27;45397;-74
2022/07/29 05:23:29;;;;;;;2.10;1.90;;;26.40;42.30;;;;;;5107739;27;45186;-73
2022/07/29 05:25:58;;;;;;;2.20;2.00;;;26.40;42.30;;;;;;5108042;27;45143;-73
2022/07/29 05:28:24;;;;;;;2.10;2.00;;;26.40;42.40;;;;;;5107387;27;45479;-74
2022/07/29 05:30:51;;;;;;;2.58;1.90;;;26.40;42.30;;;;;;5106625;27;45292;-74
2022/07/29 05:33:18;;;;;;;2.60;2.40;;;26.30;42.30;;;;;;5107687;27;45241;-74
2022/07/29 05:35:45;;;;;;;2.47;2.28;;;26.30;42.30;;;;;;5107469;27;45471;-73
2022/07/29 05:38:11;;;;;;;2.42;2.22;;;26.30;42.40;;;;;;5107408;27;46400;-74
2022/07/29 05:40:38;;;;;;;2.33;2.17;;;26.30;42.40;;;;;;5107280;27;45259;-74
2022/07/29 05:43:06;;;;;;;2.13;1.95;;;26.30;42.40;;;;;;5107405;27;45380;-74
2022/07/29 05:45:33;;;;;;;2.17;2.08;;;26.30;42.40;;;;;;5107552;27;45273;-74
2022/07/29 05:48:00;;;;;;;2.45;2.25;;;26.30;42.40;;;;;;5107604;27;45288;-74
2022/07/29 05:50:27;;;;;;;2.33;2.00;;;26.30;42.50;;;;;;5107231;27;45292;-74
2022/07/29 05:52:54;;;;;;;2.35;2.10;;;26.30;42.40;;;;;;5107395;27;45333;-74
2022/07/29 05:55:21;;;;;;;2.20;2.10;;;26.30;42.40;;;;;;5107234;27;45356;-74
2022/07/29 05:57:47;;;;;;;2.28;2.08;;;26.30;42.40;;;;;;5107007;27;47464;-74
2022/07/29 06:00:17;;;;;;;1.85;1.75;;;26.30;42.50;;;;;;5107198;27;45212;-74
2022/07/29 06:02:43;;;;;;;2.10;2.00;;;26.30;42.40;;;;;;5106942;27;45186;-74
2022/07/29 06:05:10;;;;;;;2.22;2.03;;;26.30;42.50;;;;;;5107102;27;45404;-74
2022/07/29 06:07:37;;;;;;;2.10;1.90;;;26.30;42.50;;;;;;5106995;27;46662;-74
2022/07/29 06:10:05;;;;;;;2.08;1.98;;;26.30;42.60;;;;;;5107183;27;45296;-74
2022/07/29 06:12:31;;;;;;;2.38;2.10;;;26.20;42.40;;;;;;5106855;27;45234;-73
2022/07/29 06:14:58;;;;;;;3.15;2.38;;;26.20;42.50;;;;;;5106439;27;45281;-74
2022/07/29 06:17:26;;;;;;;2.05;1.95;;;26.20;42.60;;;;;;5103856;27;45342;-74
2022/07/29 06:19:53;;;;;;;1.92;1.83;;;26.20;42.50;;;;;;5106764;27;45295;-74
2022/07/29 06:22:20;;;;;;;2.40;2.20;;;26.30;42.60;;;;;;5108076;27;45202;-74
2022/07/29 06:24:47;;;;;;;2.65;2.10;;;26.30;42.50;;;;;;5110631;27;45188;-74
2022/07/29 06:27:14;;;;;;;2.35;2.15;;;26.30;42.50;;;;;;5110299;27;45213;-74
2022/07/29 06:29:41;;;;;;;2.67;2.10;;;26.30;42.50;;;;;;5110117;27;45300;-74
2022/07/29 06:32:08;;;;;;;2.03;1.92;;;26.40;42.40;;;;;;5111331;27;45268;-73
2022/07/29 06:34:37;;;;;;;2.50;2.25;;;26.40;42.40;;;;;;5110549;27;45162;-74
2022/07/29 06:37:07;;;;;;;2.25;2.05;;;26.40;42.30;;;;;;5110122;27;45295;-74
2022/07/29 06:39:35;;;;;;;2.67;2.47;;;26.40;42.90;;;;;;5109916;27;45253;-74
2022/07/29 06:42:02;;;;;;;2.15;1.95;;;26.40;42.40;;;;;;5110427;27;45147;-74
2022/07/29 06:44:29;;;;;;;2.75;1.80;;;26.40;42.40;;;;;;5110374;27;45341;-74
2022/07/29 06:46:56;;;;;;;2.40;2.20;;;26.40;42.40;;;;;;5110004;27;45279;-74
2022/07/29 06:49:24;;;;;;;2.20;2.08;;;26.40;42.40;;;;;;5110564;27;45305;-74
2022/07/29 06:51:52;;;;;;;2.47;2.30;;;26.40;42.40;;;;;;5111541;27;45175;-74
2022/07/29 06:54:19;;;;;;;2.40;2.13;;;26.30;42.40;;;;;;5110606;27;45189;-74
2022/07/29 06:56:46;;;;;;;2.47;2.28;;;26.40;42.40;;;;;;5109753;27;45267;-74
2022/07/29 06:59:13;;;;;;;2.30;2.10;;;26.40;42.50;;;;;;5110292;27;45502;-74
2022/07/29 07:01:40;;;;;;;2.60;2.40;;;26.40;42.50;;;;;;5109362;27;45130;-72
2022/07/29 07:04:08;;;;;;;2.28;2.08;;;26.40;42.40;;;;;;5109619;27;45131;-74
2022/07/29 07:06:35;;;;;;;2.30;2.08;;;26.40;43.00;;;;;;5109876;27;47547;-74
2022/07/29 07:09:03;;;;;;;2.83;2.20;;;26.40;42.40;;;;;;5107127;27;45379;-74
2022/07/29 07:11:30;;;;;;;2.15;2.05;;;26.40;42.40;;;;;;5110085;27;45241;-74
2022/07/29 07:13:57;;;;;;;2.65;2.35;;;26.40;42.40;;;;;;5110130;27;45199;-74
2022/07/29 07:16:23;;;;;;;2.28;2.10;;;26.40;42.40;;;;;;5111871;27;46429;-74
2022/07/29 07:18:50;;;;;;;2.42;2.22;;;26.40;42.50;;;;;;5109681;27;45336;-74
2022/07/29 07:21:17;;;;;;;2.75;2.30;;;26.40;42.50;;;;;;5109687;27;45333;-73
2022/07/29 07:23:44;;;;;;;2.88;2.30;;;26.40;42.40;;;;;;5109664;27;45271;-74
2022/07/29 07:26:12;;;;;;;3.08;2.30;;;26.50;42.40;;;;;;5109286;27;48696;-73
2022/07/29 07:28:39;;;;;;;2.28;1.83;;;26.50;42.40;;;;;;5109387;27;45247;-73
2022/07/29 07:31:06;;;;;;;2.63;2.05;;;26.50;42.30;;;;;;5109387;27;45259;-74
2022/07/29 07:33:36;;;;;;;4.13;2.47;;;26.50;42.30;;;;;;5108500;27;45308;-74
2022/07/29 07:36:03;;;;;;;2.40;2.17;;;26.60;42.40;;;;;;5109187;27;45475;-74
2022/07/29 07:38:29;;;;;;;2.83;2.13;;;26.60;42.40;;;;;;5108804;27;45350;-74
2022/07/29 07:40:56;;;;;;;2.30;2.15;;;26.60;42.40;;;;;;5109440;27;45293;-74
2022/07/29 07:43:24;;;;;;;2.55;2.00;;;26.60;42.40;;;;;;5106643;27;45334;-74
2022/07/29 07:45:51;;;;;;;3.45;2.40;;;26.60;42.30;;;;;;5109175;27;45135;-74
2022/07/29 07:48:18;;;;;;;2.10;2.00;;;26.70;42.40;;;;;;5108327;27;45150;-74
2022/07/29 07:50:45;;;;;;;2.85;2.20;;;26.70;42.40;;;;;;5108948;27;45317;-74
2022/07/29 07:53:12;;;;;;;1.98;1.80;;;26.70;42.40;;;;;;5109456;27;45321;-74
2022/07/29 07:55:40;;;;;;;2.33;2.13;;;26.70;42.40;;;;;;5108745;27;45291;-74
2022/07/29 07:58:07;;;;;;;3.00;2.28;;;26.70;42.40;;;;;;5109244;27;45146;-74
2022/07/29 08:00:35;;;;;;;2.40;2.20;;;26.70;42.40;;;;;;5108999;27;45253;-74
2022/07/29 08:03:02;;;;;;;2.45;2.25;;;26.70;42.40;;;;;;5108999;27;45269;-74
2022/07/29 08:05:29;;;;;;;2.85;2.05;;;26.70;42.50;;;;;;5108668;27;46352;-74
2022/07/29 08:07:56;;;;;;;2.42;2.22;;;26.80;42.40;;;;;;5108756;27;45183;-74
2022/07/29 08:13:04;;;;;;;2.30;2.08;;;26.80;42.40;;;;;;5100600;27;45241;-74
2022/07/29 08:15:30;;;;;;;2.25;1.85;;;26.80;42.40;;;;;;5108627;27;45203;-74
2022/07/29 08:17:59;;;;;;;2.60;2.40;;;26.80;42.20;;;;;;5100571;27;45604;-74
2022/07/29 08:20:26;;;;;;;2.35;2.13;;;26.90;42.20;;;;;;5108619;27;45450;-74
2022/07/29 08:22:53;;;;;;;2.22;2.10;;;26.90;42.20;;;;;;5108803;27;45290;-74
2022/07/29 08:25:20;;;;;;;2.38;2.20;;;26.90;42.10;;;;;;5108239;27;45839;-74
2022/07/29 08:27:47;;;;;;;3.28;2.08;;;26.90;42.00;;;;;;5108738;27;45115;-74
2022/07/29 08:30:14;;;;;;;2.17;1.98;;;26.90;42.00;;;;;;5095683;27;45138;-74
2022/07/29 08:32:40;;;;;;;2.38;2.17;;;27.00;42.00;;;;;;5088103;28;45353;-74
2022/07/29 08:35:09;;;;;;;2.70;2.28;;;27.00;41.90;;;;;;5087825;28;45261;-74
2022/07/29 08:37:36;;;;;;;2.67;2.40;;;27.00;41.90;;;;;;5104658;27;45452;-74
2022/07/29 08:40:04;;;;;;;2.10;2.00;;;27.00;41.90;;;;;;5107297;27;45249;-74
2022/07/29 08:42:30;;;;;;;2.35;2.15;;;27.10;41.90;;;;;;5108531;27;45328;-74
2022/07/29 08:44:57;;;;;;;3.05;2.10;;;27.10;41.90;;;;;;5107899;27;45469;-74
2022/07/29 08:47:26;;;;;;;3.20;2.40;;;27.10;41.80;;;;;;5108073;27;45324;-74
2022/07/29 08:49:52;;;;;;;5.72;2.45;;;27.10;41.80;;;;;;5108437;27;45237;-74
2022/07/29 08:52:21;;;;;;;2.30;2.10;;;27.10;41.70;;;;;;5105638;27;45217;-74
2022/07/29 08:54:48;;;;;;;2.88;2.10;;;27.10;41.60;;;;;;5108210;27;45273;-73
2022/07/29 08:57:15;;;;;;;2.70;2.30;;;27.10;41.60;;;;;;5108007;27;45216;-73
2022/07/29 08:59:42;;;;;;;4.28;2.10;;;27.20;43.00;;;;;;5107963;27;45182;-73
2022/07/29 09:02:10;;;;;;;3.22;2.13;;;27.20;42.90;;;;;;5108233;27;45261;-73
2022/07/29 09:04:37;;;;;;;2.60;2.00;;;27.10;43.20;;;;;;5107440;27;45414;-74
2022/07/29 09:07:05;;;;;;;8.65;2.67;;;27.10;43.30;;;;;;5108034;27;45296;-74
2022/07/29 09:09:34;;;;;;;4.85;1.90;;;27.10;43.10;;;;;;5108144;27;45263;-74
2022/07/29 09:12:00;;;;;;;4.70;2.40;;;27.10;43.40;;;;;;5108174;27;45415;-74
2022/07/29 09:14:27;;;;;;;2.97;2.05;;;27.10;43.70;;;;;;5107590;27;45258;-74
2022/07/29 09:16:55;;;;;;;5.40;2.10;;;27.00;43.80;;;;;;5106191;27;45521;-72
2022/07/29 09:19:24;;;;;;;4.82;2.50;;;27.00;43.80;;;;;;5107727;27;45207;-74
2022/07/29 09:22:00;;;;;;;4.82;2.15;;;27.10;44.00;;;;;;5107755;27;45211;-73
2022/07/29 09:24:47;;;;;;;4.22;2.40;;;27.00;43.50;;;;;;5107306;27;46671;-73
2022/07/29 09:27:21;;;;;;;3.35;2.00;;;27.00;43.50;;;;;;5107368;27;45316;-73
2022/07/29 09:29:49;;;;;;;4.72;2.00;;;27.10;43.50;;;;;;5098336;27;45326;-73
2022/07/29 09:32:16;;;;;;;4.93;2.20;;;27.10;43.50;;;;;;5087239;28;45228;-74
2022/07/29 09:34:43;;;;;;;4.90;2.30;;;27.10;43.80;;;;;;5087066;28;46498;-74
2022/07/29 09:37:09;;;;;;;4.18;2.08;;;27.10;43.60;;;;;;5086099;28;45288;-72
2022/07/29 09:39:37;;;;;;;3.33;2.30;;;27.10;43.80;;;;;;5100611;27;45313;-74
2022/07/29 09:42:06;;;;;;;3.17;2.17;;;27.10;44.10;;;;;;5107511;27;45332;-74
2022/07/29 09:44:43;;;;;;;4.90;2.20;;;27.10;43.70;;;;;;5107045;27;48340;-74
2022/07/29 09:47:10;;;;;;;2.83;2.40;;;27.10;43.70;;;;;;5107183;27;45281;-73
2022/07/29 09:49:51;;;;;;;7.60;2.40;;;27.20;43.60;;;;;;5107309;27;45292;-74
2022/07/29 09:52:18;;;;;;;2.90;1.80;;;27.20;43.50;;;;;;5107278;27;45236;-74
2022/07/29 09:54:45;;;;;;;2.97;2.20;;;27.20;43.30;;;;;;5106877;27;45354;-73
2022/07/29 09:57:25;;;;;;;11.63;2.40;;;27.30;43.00;;;;;;5109506;27;45406;-74
2022/07/29 09:59:58;;;;;;;2.65;2.33;;;27.20;42.70;;;;;;5113898;27;45294;-74
2022/07/29 10:02:29;;;;;;;3.97;1.83;;;27.20;43.00;;;;;;5114073;27;45154;-74
2022/07/29 10:04:56;;;;;;;2.55;1.98;;;27.20;42.80;;;;;;5113896;27;46614;-74
2022/07/29 10:07:23;;;;;;;3.53;2.03;;;27.30;43.00;;;;;;5113370;27;45321;-74
2022/07/29 10:09:56;;;;;;;5.60;2.08;;;27.30;42.90;;;;;;5114293;27;45150;-74
2022/07/29 10:12:25;;;;;;;4.15;2.08;;;27.30;42.70;;;;;;5114592;27;45541;-74
2022/07/29 10:14:51;;;;;;;4.40;2.28;;;27.30;42.60;;;;;;5113854;27;47419;-74
2022/07/29 10:17:18;;;;;;;2.67;1.83;;;27.30;42.70;;;;;;5113363;27;45272;-74
2022/07/29 10:19:45;;;;;;;2.53;2.25;;;27.20;42.70;;;;;;5113631;27;45311;-73
2022/07/29 10:22:12;;;;;;;5.13;2.33;;;27.30;42.70;;;;;;5113860;27;45400;-74
2022/07/29 10:24:39;;;;;;;3.33;2.08;;;27.30;42.80;;;;;;5112989;27;45313;-73
2022/07/29 10:27:07;;;;;;;2.53;2.10;;;27.20;42.90;;;;;;5113477;27;45185;-73
2022/07/29 10:29:36;;;;;;;5.25;2.20;;;27.30;42.80;;;;;;5104029;27;45166;-73
2022/07/29 10:32:25;;;;;;;3.75;2.22;;;27.40;42.80;;;;;;5114644;27;45300;-73
2022/07/29 10:35:08;;;;;;;3.65;2.10;;;27.40;42.70;;;;;;5109611;27;46387;-73
2022/07/29 10:38:03;;;;;;;6.22;2.30;;;27.40;42.60;;;;;;5113205;27;45315;-73
2022/07/29 10:43:23;;;;;;;2.95;2.65;;;27.40;42.40;;;;;;5113683;27;45383;-73
2022/07/29 10:45:56;;;;;;;2.75;1.98;;;27.40;42.40;;;;;;5111019;27;46388;-73
2022/07/29 10:48:23;;;;;;;4.03;2.30;;;27.50;42.90;;;;;;5112702;27;45230;-73
2022/07/29 10:50:55;;;;;;;4.43;2.10;;;27.50;42.30;;;;;;5113509;27;45308;-73
2022/07/29 10:53:21;;;;;;;3.10;2.10;;;27.60;42.60;;;;;;5113015;27;45702;-74
2022/07/29 10:55:50;;;;;;;4.47;2.40;;;27.50;42.70;;;;;;5113070;27;46298;-74
2022/07/29 10:58:18;;;;;;;4.03;2.50;;;27.50;43.60;;;;;;5113097;27;45254;-73
2022/07/29 11:00:45;;;;;;;2.53;2.25;;;27.50;43.10;;;;;;5113320;27;45288;-74
2022/07/29 11:03:37;;;;;;;3.25;2.03;;;27.40;43.00;;;;;;5113247;27;45397;-74
2022/07/29 11:06:03;;;;;;;2.58;1.95;;;27.40;43.20;;;;;;5114018;27;46656;-74
2022/07/29 11:08:30;;;;;;;2.17;1.98;;;27.40;43.40;;;;;;5110760;27;45215;-74
2022/07/29 11:11:40;;;;;;;2.80;2.53;;;27.50;43.40;;;;;;5101546;27;45338;-74
2022/07/29 11:14:07;;;;;;;2.90;2.05;;;27.60;43.30;;;;;;5110735;27;45686;-74
2022/07/29 11:17:04;;;;;;;3.75;2.15;;;27.60;43.10;;;;;;5109930;27;46462;-74
2022/07/29 11:19:32;;;;;;;6.88;2.40;;;27.60;43.10;;;;;;5109738;27;45269;-74
2022/07/29 11:21:59;;;;;;;5.03;2.20;;;27.70;43.20;;;;;;5109986;27;45255;-74
2022/07/29 11:24:28;;;;;;;4.88;2.38;;;27.70;43.20;;;;;;5109958;27;45447;-74
2022/07/29 11:27:12;;;;;;;7.00;3.00;;;27.70;42.50;;;;;;5109428;27;46668;-74
2022/07/29 11:29:41;;;;;;;4.70;2.15;;;27.80;42.90;;;;;;5101500;27;45139;-74
2022/07/29 11:32:11;;;;;;;3.85;2.40;;;27.90;42.60;;;;;;5089571;28;45319;-74
2022/07/29 11:34:40;;;;;;;8.50;2.70;;;27.90;42.30;;;;;;5089244;28;45178;-74
2022/07/29 11:37:31;;;;;;;8.30;3.08;;;27.90;42.40;;;;;;5101393;27;46974;-74
2022/07/29 11:40:12;;;;;;;5.80;2.58;;;27.90;42.90;;;;;;5109431;27;45218;-74
2022/07/29 11:42:46;;;;;;;3.63;2.10;;;27.90;41.80;;;;;;5109805;27;45323;-74
2022/07/29 11:45:15;;;;;;;3.10;2.33;;;27.90;41.80;;;;;;5109696;27;45536;-74
2022/07/29 11:47:43;;;;;;;5.43;2.40;;;27.90;41.80;;;;;;5109391;27;45457;-74
2022/07/29 11:50:12;;;;;;;4.95;2.50;;;27.90;41.90;;;;;;5109166;27;45188;-74
2022/07/29 11:52:44;;;;;;;2.38;2.22;;;28.00;41.80;;;;;;5109317;27;45277;-74
2022/07/29 11:55:13;;;;;;;5.15;2.63;;;28.00;42.00;;;;;;5109332;27;45430;-74
2022/07/29 11:57:46;;;;;;;5.95;2.70;;;28.10;42.00;;;;;;5109727;27;45291;-74
2022/07/29 12:00:18;;;;;;;6.70;2.58;;;28.10;41.80;;;;;;5108926;27;45292;-74
2022/07/29 12:02:44;;;;;;;3.50;2.60;;;28.10;41.90;;;;;;5109060;27;45254;-74
2022/07/29 12:05:13;;;;;;;2.97;2.15;;;28.10;42.10;;;;;;5109404;27;45350;-74
2022/07/29 12:07:45;;;;;;;8.30;2.63;;;28.10;42.20;;;;;;5108676;27;45728;-74
2022/07/29 12:10:12;;;;;;;9.20;2.78;;;28.10;42.10;;;;;;5108718;27;45359;-74
2022/07/29 12:12:39;;;;;;;6.45;2.47;;;28.20;42.20;;;;;;5108214;27;45360;-74
2022/07/29 12:15:23;;;;;;;2.90;2.50;;;28.20;42.10;;;;;;5108540;27;45329;-74
2022/07/29 12:17:50;;;;;;;4.85;2.70;;;28.20;42.10;;;;;;5107583;27;46328;-74
2022/07/29 12:20:25;;;;;;;5.38;2.42;;;28.20;42.10;;;;;;5108107;27;45220;-74
2022/07/29 12:22:53;;;;;;;4.00;2.38;;;28.20;42.10;;;;;;5108490;27;45286;-74
2022/07/29 12:25:20;;;;;;;4.47;2.20;;;28.20;42.10;;;;;;5108767;27;45181;-74
2022/07/29 12:27:47;;;;;;;4.60;2.33;;;28.20;42.10;;;;;;5108553;27;46777;-74
2022/07/29 12:30:14;;;;;;;4.95;2.50;;;28.20;42.00;;;;;;5095726;27;45471;-74
2022/07/29 12:32:46;;;;;;;5.28;2.40;;;28.30;42.20;;;;;;5088036;28;45303;-74
2022/07/29 12:35:14;;;;;;;4.28;2.47;;;28.30;42.20;;;;;;5088107;28;45253;-74
2022/07/29 12:37:43;;;;;;;5.65;2.50;;;28.30;42.40;;;;;;5105404;27;45227;-74
2022/07/29 12:40:12;;;;;;;4.30;2.10;;;28.20;42.40;;;;;;5107873;27;45211;-74
2022/07/29 12:42:39;;;;;;;3.83;2.70;;;28.30;42.50;;;;;;5108473;27;45395;-74
2022/07/29 12:45:07;;;;;;;4.28;2.78;;;28.30;42.40;;;;;;5108383;27;45379;-74
2022/07/29 12:47:34;;;;;;;6.22;2.63;;;28.30;42.20;;;;;;5107930;27;46406;-75
2022/07/29 12:50:19;;;;;;;7.25;2.50;;;28.20;42.30;;;;;;5108046;27;45217;-75
2022/07/29 12:52:47;;;;;;;6.18;2.70;;;28.30;42.40;;;;;;5108279;27;45233;-73
2022/07/29 12:55:14;;;;;;;4.00;2.50;;;28.30;42.40;;;;;;5108417;27;45454;-73
2022/07/29 12:57:48;;;;;;;3.83;2.55;;;28.40;42.30;;;;;;5108291;27;45410;-73
2022/07/29 13:00:15;;;;;;;4.72;2.88;;;28.40;42.10;;;;;;5107983;27;45264;-73
2022/07/29 13:02:43;;;;;;;4.50;3.10;;;28.40;42.20;;;;;;5107860;27;45267;-73